Warroad, MN

1:30 PM CDT on April 19, 2015 (GMT -0500)
Warroad International-Carlson | | Change Station
CLOSE
Current Station
Airport
Location: Warroad,
Elevation: 1073 ft
Nearby Weather Stations

Elev 1073 ft 48.94 °N, 95.35 °W | Updated 16 minutes ago

Overcast
Overcast
41 °F
Feels Like 41 °F
N
0
Wind Variable Wind from North

Today
High -- | Low -- °F
--% Chance of Precip.
Yesterday
High -- | Low -- °F
Precip. -- in
6:22 AM 8:18 PM
New Moon, 1% visible
Pressure 29.61 in
Visibility 7.0 miles
Clouds Overcast 500 ft
Dew Point 37 °F
Humidity 87%
Rainfall 0.18 in
Snow Depth Not available.
UV 2 out of 12
Pollen 3.20 out of 12
Air Quality Not available.
Flu Activity Local Activity
METAR KRRT 191814Z AUTO 00000KT 7SM -DZ OVC005 05/03 A2961 RMK AO2

More Conditions Fewer Conditions

Pressure 29.61 in
Visibility 7.0 miles
Clouds Overcast 500 ft
Dew Point 37 °F
Humidity 87%
Rainfall 0.18 in
Snow Depth Not available.
UV 2 out of 12
Pollen 3.20 out of 12
Air Quality Not available.
Flu Activity Local Activity
METAR KRRT 191814Z AUTO 00000KT 7SM -DZ OVC005 05/03 A2961 RMK AO2

More Conditions Fewer Conditions

10-Day Weather Forecast

Almanac

Astronomy

Apr. 19, 2015 Rise Set
Actual Time
Civil Twilight
Nautical Twilight
Astronomical Twilight
Moon
Length of Visible Light
Length of Day
Tomorrow will be .
, % of the Moon is Illuminated

Today's Extremes

State Highs State Lows

Community

WunderPhotos

Upload Photos

1,814,900 photos uploaded!

WunderBlogs® & News

Nearby

Air Quality

  Air Quality AQ Index Pollutant
Not available.

Snow Depth

Station Depth Elevation

Earthquake Activity

City Distance Mag. Time & Date
Minimum magnitude displayed is 2.5.

Coastal Water Temperatures

Place Temperature

Stations

Nearby Weather Stations

Station Location Temp. Windchill Dew Point Humidity Wind Precip. Elev Updated Type